< < Back
Terminal Aerodrome Forecast


Current Version              Previous Versions:   1  2  3  4  5  6  7  8  9  

Terminal Aerodrome Forecast

514
FTUS42 KFFC 241134
TAFMCN
TAF
KMCN 241134Z 2412/2512 20006KT P6SM BKN007 OVC014
      TEMPO 2412/2414 SCT007 OVC014
     FM241400 24009G15KT P6SM BKN015 OVC030
     FM241700 25010G18KT P6SM SCT035 BKN070
     FM242200 27007KT P6SM SCT070=

Latest METAR

076
SAUS80 KWBC 241600
MTRMCN
METAR KMCN 241553Z VRB06KT 10SM FEW018 SCT026 BKN110 22/18 A2984 RMK AO2
SLP101 T02220178


USA.gov is the U.S. government's official web portal to all federal, state and local government web resources and services.